Terminal Aerodrome Forecast
Issued by NWS

Home | Current Version | Previous Version | Text Only | Print | Product List | Glossary On
Versions: 1 2 3 4 5 6 7 8 9 10 11 12 13 14 15 16 17 18 19 20 21 22 23 24
000
FTUS43 KDDC 032334
TAFHYS
TAF
KHYS 032334Z 0400/0424 01015KT P6SM BKN180
     FM040800 03015G25KT 3SM -SN BR OVC030
     FM041500 02010G20KT P6SM OVC045=

USA.gov is the U.S. government's official web portal to all federal, state and local government web resources and services.